sensor_id;sensor_type;location;lat;lon;timestamp;pressure;altitude;pressure_sealevel;temperature
34125;BMP280;20110;53.120;5.786;2023-07-13T00:00:42;101239.97;;;23.58
34125;BMP280;20110;53.120;5.786;2023-07-13T00:03:08;101203.16;;;23.29
34125;BMP280;20110;53.120;5.786;2023-07-13T00:05:34;101176.81;;;23.18
34125;BMP280;20110;53.120;5.786;2023-07-13T00:08:00;101240.69;;;23.58
34125;BMP280;20110;53.120;5.786;2023-07-13T00:10:26;101275.22;;;23.83
34125;BMP280;20110;53.120;5.786;2023-07-13T00:12:52;101273.22;;;23.83
34125;BMP280;20110;53.120;5.786;2023-07-13T00:15:25;101269.22;;;23.84
34125;BMP280;20110;53.120;5.786;2023-07-13T00:17:54;101263.94;;;23.75
34125;BMP280;20110;53.120;5.786;2023-07-13T00:20:23;101261.03;;;23.71
34125;BMP280;20110;53.120;5.786;2023-07-13T00:22:51;101233.59;;;23.53
34125;BMP280;20110;53.120;5.786;2023-07-13T00:25:22;101234.72;;;23.48
34125;BMP280;20110;53.120;5.786;2023-07-13T00:27:51;101253.13;;;23.63
34125;BMP280;20110;53.120;5.786;2023-07-13T00:30:18;101212.84;;;23.32
34125;BMP280;20110;53.120;5.786;2023-07-13T00:32:44;101269.84;;;23.71
34125;BMP280;20110;53.120;5.786;2023-07-13T00:35:10;101283.34;;;23.83
34125;BMP280;20110;53.120;5.786;2023-07-13T00:37:36;101276.41;;;23.80
34125;BMP280;20110;53.120;5.786;2023-07-13T00:40:04;101218.25;;;23.32
34125;BMP280;20110;53.120;5.786;2023-07-13T00:42:33;101256.19;;;23.69
34125;BMP280;20110;53.120;5.786;2023-07-13T00:47:50;101241.84;;;23.55
34125;BMP280;20110;53.120;5.786;2023-07-13T00:50:17;101274.19;;;23.76
34125;BMP280;20110;53.120;5.786;2023-07-13T00:52:49;101263.75;;;23.59
34125;BMP280;20110;53.120;5.786;2023-07-13T00:55:17;101254.56;;;23.53
34125;BMP280;20110;53.120;5.786;2023-07-13T00:57:44;101273.31;;;23.60
34125;BMP280;20110;53.120;5.786;2023-07-13T01:00:11;101266.75;;;23.52
34125;BMP280;20110;53.120;5.786;2023-07-13T01:02:40;101278.72;;;23.60
34125;BMP280;20110;53.120;5.786;2023-07-13T01:05:17;101277.22;;;23.57
34125;BMP280;20110;53.120;5.786;2023-07-13T01:07:45;101271.56;;;23.53
34125;BMP280;20110;53.120;5.786;2023-07-13T01:10:13;101146.88;;;22.56
34125;BMP280;20110;53.120;5.786;2023-07-13T01:12:39;101270.06;;;23.38
34125;BMP280;20110;53.120;5.786;2023-07-13T01:18:22;101250.22;;;23.11
34125;BMP280;20110;53.120;5.786;2023-07-13T01:21:02;101280.84;;;23.13
34125;BMP280;20110;53.120;5.786;2023-07-13T01:23:31;101287.91;;;23.07
34125;BMP280;20110;53.120;5.786;2023-07-13T01:25:58;101220.22;;;22.48
34125;BMP280;20110;53.120;5.786;2023-07-13T01:28:26;101269.44;;;22.80
34125;BMP280;20110;53.120;5.786;2023-07-13T01:30:54;101279.56;;;22.91
34125;BMP280;20110;53.120;5.786;2023-07-13T01:33:21;101211.50;;;22.38
34125;BMP280;20110;53.120;5.786;2023-07-13T01:35:47;101257.53;;;22.73
34125;BMP280;20110;53.120;5.786;2023-07-13T01:38:20;101273.31;;;22.77
34125;BMP280;20110;53.120;5.786;2023-07-13T01:40:47;101273.56;;;22.81
34125;BMP280;20110;53.120;5.786;2023-07-13T01:43:14;101274.50;;;22.85
34125;BMP280;20110;53.120;5.786;2023-07-13T01:45:40;101201.88;;;22.35
34125;BMP280;20110;53.120;5.786;2023-07-13T01:48:06;101285.00;;;23.02
34125;BMP280;20110;53.120;5.786;2023-07-13T01:50:33;101280.59;;;23.09
34125;BMP280;20110;53.120;5.786;2023-07-13T01:52:59;101189.78;;;22.48
34125;BMP280;20110;53.120;5.786;2023-07-13T01:55:25;101265.41;;;23.04
34125;BMP280;20110;53.120;5.786;2023-07-13T01:57:51;101271.91;;;22.99
34125;BMP280;20110;53.120;5.786;2023-07-13T02:00:17;101179.84;;;22.29
34125;BMP280;20110;53.120;5.786;2023-07-13T02:02:43;101257.53;;;22.73
34125;BMP280;20110;53.120;5.786;2023-07-13T02:05:10;101274.28;;;22.81
34125;BMP280;20110;53.120;5.786;2023-07-13T02:07:37;101223.97;;;22.32
34125;BMP280;20110;53.120;5.786;2023-07-13T02:10:04;101245.72;;;22.45
34125;BMP280;20110;53.120;5.786;2023-07-13T02:12:30;101209.13;;;22.21
34125;BMP280;20110;53.120;5.786;2023-07-13T02:14:56;101156.00;;;21.81
34125;BMP280;20110;53.120;5.786;2023-07-13T02:17:22;101177.81;;;21.95
34125;BMP280;20110;53.120;5.786;2023-07-13T02:19:47;101283.09;;;22.58
34125;BMP280;20110;53.120;5.786;2023-07-13T02:22:13;101276.81;;;22.56
34125;BMP280;20110;53.120;5.786;2023-07-13T02:24:39;101270.50;;;22.51
34125;BMP280;20110;53.120;5.786;2023-07-13T02:27:08;101278.13;;;22.55
34125;BMP280;20110;53.120;5.786;2023-07-13T02:29:33;101171.97;;;21.77
34125;BMP280;20110;53.120;5.786;2023-07-13T02:31:59;101235.25;;;22.28
34125;BMP280;20110;53.120;5.786;2023-07-13T02:34:25;101280.72;;;22.65
34125;BMP280;20110;53.120;5.786;2023-07-13T02:36:57;101249.88;;;22.46
34125;BMP280;20110;53.120;5.786;2023-07-13T02:39:23;101257.56;;;22.61
34125;BMP280;20110;53.120;5.786;2023-07-13T02:41:50;101286.63;;;22.84
34125;BMP280;20110;53.120;5.786;2023-07-13T02:44:16;101273.09;;;22.84
34125;BMP280;20110;53.120;5.786;2023-07-13T02:46:42;101265.78;;;22.75
34125;BMP280;20110;53.120;5.786;2023-07-13T02:49:08;101260.63;;;22.79
34125;BMP280;20110;53.120;5.786;2023-07-13T02:51:35;101242.69;;;22.62
34125;BMP280;20110;53.120;5.786;2023-07-13T02:54:03;101247.31;;;22.72
34125;BMP280;20110;53.120;5.786;2023-07-13T02:56:33;101204.22;;;22.41
34125;BMP280;20110;53.120;5.786;2023-07-13T02:58:58;101146.28;;;21.99
34125;BMP280;20110;53.120;5.786;2023-07-13T03:01:25;101266.16;;;22.81
34125;BMP280;20110;53.120;5.786;2023-07-13T03:03:52;101211.63;;;22.29
34125;BMP280;20110;53.120;5.786;2023-07-13T03:06:20;101286.25;;;22.78
34125;BMP280;20110;53.120;5.786;2023-07-13T03:08:47;101254.00;;;22.47
34125;BMP280;20110;53.120;5.786;2023-07-13T03:11:19;101293.56;;;22.64
34125;BMP280;20110;53.120;5.786;2023-07-13T03:13:46;101275.50;;;22.45
34125;BMP280;20110;53.120;5.786;2023-07-13T03:16:13;101284.22;;;22.55
34125;BMP280;20110;53.120;5.786;2023-07-13T03:18:42;101294.84;;;22.63
34125;BMP280;20110;53.120;5.786;2023-07-13T03:21:08;101265.63;;;22.38
34125;BMP280;20110;53.120;5.786;2023-07-13T03:23:34;101289.53;;;22.53
34125;BMP280;20110;53.120;5.786;2023-07-13T03:26:07;101299.66;;;22.53
34125;BMP280;20110;53.120;5.786;2023-07-13T03:28:34;101188.06;;;21.75
34125;BMP280;20110;53.120;5.786;2023-07-13T03:31:10;101303.75;;;22.42
34125;BMP280;20110;53.120;5.786;2023-07-13T03:33:38;101301.16;;;22.44
34125;BMP280;20110;53.120;5.786;2023-07-13T03:36:12;101297.16;;;22.34
34125;BMP280;20110;53.120;5.786;2023-07-13T03:38:39;101296.69;;;22.37
34125;BMP280;20110;53.120;5.786;2023-07-13T03:41:06;101246.81;;;21.96
34125;BMP280;20110;53.120;5.786;2023-07-13T03:43:32;101300.09;;;22.26
34125;BMP280;20110;53.120;5.786;2023-07-13T03:45:58;101212.53;;;21.56
34125;BMP280;20110;53.120;5.786;2023-07-13T03:48:23;101317.03;;;22.27
34125;BMP280;20110;53.120;5.786;2023-07-13T03:50:49;101306.78;;;22.25
34125;BMP280;20110;53.120;5.786;2023-07-13T03:53:16;101305.69;;;22.18
34125;BMP280;20110;53.120;5.786;2023-07-13T03:55:43;101311.47;;;22.25
34125;BMP280;20110;53.120;5.786;2023-07-13T03:58:35;101309.56;;;22.15
34125;BMP280;20110;53.120;5.786;2023-07-13T04:01:06;101288.44;;;22.02
34125;BMP280;20110;53.120;5.786;2023-07-13T04:03:35;101285.50;;;21.98
34125;BMP280;20110;53.120;5.786;2023-07-13T04:06:03;101285.63;;;22.00
34125;BMP280;20110;53.120;5.786;2023-07-13T04:08:34;101298.59;;;22.13
34125;BMP280;20110;53.120;5.786;2023-07-13T04:11:03;101318.66;;;22.32
34125;BMP280;20110;53.120;5.786;2023-07-13T04:13:29;101263.94;;;21.89
34125;BMP280;20110;53.120;5.786;2023-07-13T04:15:56;101323.63;;;22.35
34125;BMP280;20110;53.120;5.786;2023-07-13T04:18:21;101163.88;;;21.23
34125;BMP280;20110;53.120;5.786;2023-07-13T04:20:50;101316.88;;;22.25
34125;BMP280;20110;53.120;5.786;2023-07-13T04:23:18;101301.47;;;22.15
34125;BMP280;20110;53.120;5.786;2023-07-13T04:25:48;101274.56;;;21.96
34125;BMP280;20110;53.120;5.786;2023-07-13T04:28:16;101339.63;;;22.43
34125;BMP280;20110;53.120;5.786;2023-07-13T04:30:45;101293.06;;;22.11
34125;BMP280;20110;53.120;5.786;2023-07-13T04:33:11;101320.91;;;22.35
34125;BMP280;20110;53.120;5.786;2023-07-13T04:35:37;101328.91;;;22.45
34125;BMP280;20110;53.120;5.786;2023-07-13T04:38:03;101350.28;;;22.62
34125;BMP280;20110;53.120;5.786;2023-07-13T04:40:30;101312.56;;;22.43
34125;BMP280;20110;53.120;5.786;2023-07-13T04:42:57;101337.25;;;22.70
34125;BMP280;20110;53.120;5.786;2023-07-13T04:45:24;101276.03;;;22.20
34125;BMP280;20110;53.120;5.786;2023-07-13T04:47:50;101357.41;;;22.79
34125;BMP280;20110;53.120;5.786;2023-07-13T04:50:16;101340.56;;;22.69
34125;BMP280;20110;53.120;5.786;2023-07-13T04:52:46;101366.69;;;22.87
34125;BMP280;20110;53.120;5.786;2023-07-13T04:55:13;101348.31;;;22.86
34125;BMP280;20110;53.120;5.786;2023-07-13T04:57:39;101349.63;;;22.85
34125;BMP280;20110;53.120;5.786;2023-07-13T05:00:05;101333.03;;;22.79
34125;BMP280;20110;53.120;5.786;2023-07-13T05:02:33;101353.16;;;22.99
34125;BMP280;20110;53.120;5.786;2023-07-13T05:05:01;101370.38;;;23.15
34125;BMP280;20110;53.120;5.786;2023-07-13T05:07:27;101331.63;;;22.89
34125;BMP280;20110;53.120;5.786;2023-07-13T05:09:53;101318.09;;;22.89
34125;BMP280;20110;53.120;5.786;2023-07-13T05:12:19;101307.56;;;22.84
34125;BMP280;20110;53.120;5.786;2023-07-13T05:14:45;101325.25;;;22.96
34125;BMP280;20110;53.120;5.786;2023-07-13T05:17:12;101377.91;;;23.40
34125;BMP280;20110;53.120;5.786;2023-07-13T05:19:38;101389.56;;;23.54
34125;BMP280;20110;53.120;5.786;2023-07-13T05:22:04;101367.75;;;23.40
34125;BMP280;20110;53.120;5.786;2023-07-13T05:24:30;101397.69;;;23.66
34125;BMP280;20110;53.120;5.786;2023-07-13T05:26:56;101393.91;;;23.71
34125;BMP280;20110;53.120;5.786;2023-07-13T05:29:22;101394.34;;;23.79
34125;BMP280;20110;53.120;5.786;2023-07-13T05:31:48;101321.13;;;23.19
34125;BMP280;20110;53.120;5.786;2023-07-13T05:34:14;101369.25;;;23.67
34125;BMP280;20110;53.120;5.786;2023-07-13T05:36:41;101398.63;;;23.96
34125;BMP280;20110;53.120;5.786;2023-07-13T05:39:07;101399.31;;;24.08
34125;BMP280;20110;53.120;5.786;2023-07-13T05:41:33;101401.88;;;24.17
34125;BMP280;20110;53.120;5.786;2023-07-13T05:43:58;101382.56;;;24.11
34125;BMP280;20110;53.120;5.786;2023-07-13T05:46:25;101335.69;;;23.85
34125;BMP280;20110;53.120;5.786;2023-07-13T05:48:51;101325.00;;;23.87
34125;BMP280;20110;53.120;5.786;2023-07-13T05:51:17;101393.34;;;24.48
34125;BMP280;20110;53.120;5.786;2023-07-13T05:53:43;101375.88;;;24.51
34125;BMP280;20110;53.120;5.786;2023-07-13T05:56:09;101383.34;;;24.64
34125;BMP280;20110;53.120;5.786;2023-07-13T05:58:34;101325.34;;;24.32
34125;BMP280;20110;53.120;5.786;2023-07-13T06:01:12;101395.69;;;24.93
34125;BMP280;20110;53.120;5.786;2023-07-13T06:03:39;101374.44;;;24.89
34125;BMP280;20110;53.120;5.786;2023-07-13T06:06:08;101404.75;;;25.11
34125;BMP280;20110;53.120;5.786;2023-07-13T06:08:35;101408.66;;;25.21
34125;BMP280;20110;53.120;5.786;2023-07-13T06:11:17;101373.75;;;25.02
34125;BMP280;20110;53.120;5.786;2023-07-13T06:13:44;101395.88;;;25.38
34125;BMP280;20110;53.120;5.786;2023-07-13T06:16:13;101399.41;;;25.40
34125;BMP280;20110;53.120;5.786;2023-07-13T06:18:40;101416.69;;;25.47
34125;BMP280;20110;53.120;5.786;2023-07-13T06:21:22;101418.13;;;25.34
34125;BMP280;20110;53.120;5.786;2023-07-13T06:23:50;101385.41;;;25.05
34125;BMP280;20110;53.120;5.786;2023-07-13T06:26:18;101419.53;;;25.21
34125;BMP280;20110;53.120;5.786;2023-07-13T06:28:45;101419.44;;;25.19
34125;BMP280;20110;53.120;5.786;2023-07-13T06:31:13;101378.56;;;24.90
34125;BMP280;20110;53.120;5.786;2023-07-13T06:33:39;101400.94;;;25.16
34125;BMP280;20110;53.120;5.786;2023-07-13T06:36:07;101418.34;;;25.38
34125;BMP280;20110;53.120;5.786;2023-07-13T06:38:34;101408.94;;;25.55
34125;BMP280;20110;53.120;5.786;2023-07-13T06:41:00;101418.34;;;25.95
34125;BMP280;20110;53.120;5.786;2023-07-13T06:43:26;101431.50;;;26.30
34125;BMP280;20110;53.120;5.786;2023-07-13T06:45:55;101413.75;;;26.29
34125;BMP280;20110;53.120;5.786;2023-07-13T06:48:22;101395.41;;;26.29
34125;BMP280;20110;53.120;5.786;2023-07-13T06:50:50;101449.84;;;26.90
34125;BMP280;20110;53.120;5.786;2023-07-13T06:53:19;101442.88;;;27.02
34125;BMP280;20110;53.120;5.786;2023-07-13T06:55:45;101432.44;;;27.30
34125;BMP280;20110;53.120;5.786;2023-07-13T06:58:14;101382.38;;;26.90
34125;BMP280;20110;53.120;5.786;2023-07-13T07:00:40;101421.53;;;27.30
34125;BMP280;20110;53.120;5.786;2023-07-13T07:03:06;101441.34;;;27.48
34125;BMP280;20110;53.120;5.786;2023-07-13T07:05:32;101445.44;;;27.65
34125;BMP280;20110;53.120;5.786;2023-07-13T07:07:59;101436.16;;;27.54
34125;BMP280;20110;53.120;5.786;2023-07-13T07:10:25;101461.56;;;27.59
34125;BMP280;20110;53.120;5.786;2023-07-13T07:12:51;101459.50;;;27.42
34125;BMP280;20110;53.120;5.786;2023-07-13T07:15:18;101463.94;;;27.18
34125;BMP280;20110;53.120;5.786;2023-07-13T07:17:44;101376.78;;;26.39
34125;BMP280;20110;53.120;5.786;2023-07-13T07:20:11;101460.19;;;26.93
34125;BMP280;20110;53.120;5.786;2023-07-13T07:22:37;101433.22;;;26.84
34125;BMP280;20110;53.120;5.786;2023-07-13T07:25:03;101442.59;;;26.96
34125;BMP280;20110;53.120;5.786;2023-07-13T07:27:29;101450.38;;;27.20
34125;BMP280;20110;53.120;5.786;2023-07-13T07:29:54;101481.75;;;27.70
34125;BMP280;20110;53.120;5.786;2023-07-13T07:32:20;101466.88;;;27.90
34125;BMP280;20110;53.120;5.786;2023-07-13T07:34:47;101460.72;;;27.54
34125;BMP280;20110;53.120;5.786;2023-07-13T07:37:14;101461.28;;;27.35
34125;BMP280;20110;53.120;5.786;2023-07-13T07:39:42;101453.38;;;27.26
34125;BMP280;20110;53.120;5.786;2023-07-13T07:42:08;101466.09;;;27.70
34125;BMP280;20110;53.120;5.786;2023-07-13T07:44:34;101459.41;;;27.91
34125;BMP280;20110;53.120;5.786;2023-07-13T07:47:01;101466.94;;;27.92
34125;BMP280;20110;53.120;5.786;2023-07-13T07:49:27;101468.78;;;27.86
34125;BMP280;20110;53.120;5.786;2023-07-13T07:51:53;101476.88;;;27.66
34125;BMP280;20110;53.120;5.786;2023-07-13T07:54:18;101418.53;;;26.91
34125;BMP280;20110;53.120;5.786;2023-07-13T07:56:44;101465.19;;;27.15
34125;BMP280;20110;53.120;5.786;2023-07-13T07:59:11;101465.81;;;26.97
34125;BMP280;20110;53.120;5.786;2023-07-13T08:01:37;101469.88;;;26.81
34125;BMP280;20110;53.120;5.786;2023-07-13T08:04:03;101462.75;;;26.89
34125;BMP280;20110;53.120;5.786;2023-07-13T08:06:31;101475.41;;;26.98
34125;BMP280;20110;53.120;5.786;2023-07-13T08:08:57;101476.91;;;26.86
34125;BMP280;20110;53.120;5.786;2023-07-13T08:11:23;101443.56;;;26.40
34125;BMP280;20110;53.120;5.786;2023-07-13T08:13:50;101468.91;;;26.74
34125;BMP280;20110;53.120;5.786;2023-07-13T08:16:16;101444.56;;;26.78
34125;BMP280;20110;53.120;5.786;2023-07-13T08:18:42;101487.00;;;27.15
34125;BMP280;20110;53.120;5.786;2023-07-13T08:21:09;101469.47;;;27.20
34125;BMP280;20110;53.120;5.786;2023-07-13T08:23:36;101468.59;;;27.31
34125;BMP280;20110;53.120;5.786;2023-07-13T08:26:02;101466.91;;;27.39
34125;BMP280;20110;53.120;5.786;2023-07-13T08:28:30;101484.56;;;27.54
34125;BMP280;20110;53.120;5.786;2023-07-13T08:31:07;101393.13;;;26.71
34125;BMP280;20110;53.120;5.786;2023-07-13T08:33:35;101475.81;;;27.24
34125;BMP280;20110;53.120;5.786;2023-07-13T08:36:02;101466.97;;;27.41
34125;BMP280;20110;53.120;5.786;2023-07-13T08:38:28;101457.50;;;27.42
34125;BMP280;20110;53.120;5.786;2023-07-13T08:40:56;101482.63;;;27.41
34125;BMP280;20110;53.120;5.786;2023-07-13T08:43:30;101461.69;;;27.12
34125;BMP280;20110;53.120;5.786;2023-07-13T08:46:23;101457.09;;;27.17
34125;BMP280;20110;53.120;5.786;2023-07-13T08:49:06;101490.81;;;27.56
34125;BMP280;20110;53.120;5.786;2023-07-13T08:54:51;101449.50;;;27.31
34125;BMP280;20110;53.120;5.786;2023-07-13T08:57:30;101500.94;;;27.54
34125;BMP280;20110;53.120;5.786;2023-07-13T08:59:57;101482.63;;;27.56
34125;BMP280;20110;53.120;5.786;2023-07-13T09:02:48;101505.66;;;28.04
34125;BMP280;20110;53.120;5.786;2023-07-13T09:05:33;101494.78;;;28.24
34125;BMP280;20110;53.120;5.786;2023-07-13T09:11:00;101516.69;;;28.62
34125;BMP280;20110;53.120;5.786;2023-07-13T09:14:21;101515.66;;;28.90
34125;BMP280;20110;53.120;5.786;2023-07-13T09:16:52;101499.81;;;28.87
34125;BMP280;20110;53.120;5.786;2023-07-13T09:19:28;101511.06;;;28.77
34125;BMP280;20110;53.120;5.786;2023-07-13T09:21:55;101510.94;;;28.93
34125;BMP280;20110;53.120;5.786;2023-07-13T09:26:58;101526.47;;;29.06
34125;BMP280;20110;53.120;5.786;2023-07-13T09:29:33;101490.84;;;28.84
34125;BMP280;20110;53.120;5.786;2023-07-13T09:32:05;101520.63;;;28.76
34125;BMP280;20110;53.120;5.786;2023-07-13T09:34:33;101481.50;;;28.52
34125;BMP280;20110;53.120;5.786;2023-07-13T09:36:59;101535.47;;;28.71
34125;BMP280;20110;53.120;5.786;2023-07-13T09:39:33;101525.47;;;28.40
34125;BMP280;20110;53.120;5.786;2023-07-13T09:42:16;101512.88;;;28.51
34125;BMP280;20110;53.120;5.786;2023-07-13T09:45:00;101530.09;;;28.93
34125;BMP280;20110;53.120;5.786;2023-07-13T09:47:38;101529.94;;;28.89
34125;BMP280;20110;53.120;5.786;2023-07-13T09:50:14;101483.13;;;28.79
34125;BMP280;20110;53.120;5.786;2023-07-13T09:52:48;101528.56;;;28.88
34125;BMP280;20110;53.120;5.786;2023-07-13T09:55:36;101551.97;;;29.13
34125;BMP280;20110;53.120;5.786;2023-07-13T10:00:36;101541.34;;;29.42
34125;BMP280;20110;53.120;5.786;2023-07-13T10:03:23;101535.75;;;29.38
34125;BMP280;20110;53.120;5.786;2023-07-13T10:05:51;101545.13;;;29.53
34125;BMP280;20110;53.120;5.786;2023-07-13T10:08:26;101551.75;;;29.68
34125;BMP280;20110;53.120;5.786;2023-07-13T10:11:27;101565.53;;;30.37
34125;BMP280;20110;53.120;5.786;2023-07-13T10:14:13;101542.09;;;30.56
34125;BMP280;20110;53.120;5.786;2023-07-13T10:16:43;101553.66;;;30.30
34125;BMP280;20110;53.120;5.786;2023-07-13T10:19:19;101542.66;;;30.05
34125;BMP280;20110;53.120;5.786;2023-07-13T10:21:57;101555.94;;;30.14
34125;BMP280;20110;53.120;5.786;2023-07-13T10:24:35;101530.28;;;30.04
34125;BMP280;20110;53.120;5.786;2023-07-13T10:27:20;101561.88;;;30.54
34125;BMP280;20110;53.120;5.786;2023-07-13T10:30:27;101570.94;;;30.59
34125;BMP280;20110;53.120;5.786;2023-07-13T10:33:00;101567.31;;;30.28
34125;BMP280;20110;53.120;5.786;2023-07-13T10:35:29;101567.97;;;31.00
34125;BMP280;20110;53.120;5.786;2023-07-13T10:38:04;101563.03;;;30.96
34125;BMP280;20110;53.120;5.786;2023-07-13T10:40:56;101570.66;;;31.83
34125;BMP280;20110;53.120;5.786;2023-07-13T10:43:35;101552.84;;;32.50
34125;BMP280;20110;53.120;5.786;2023-07-13T10:46:11;101587.25;;;33.73
34125;BMP280;20110;53.120;5.786;2023-07-13T10:48:40;101580.31;;;34.26
34125;BMP280;20110;53.120;5.786;2023-07-13T10:51:09;101572.06;;;33.26
34125;BMP280;20110;53.120;5.786;2023-07-13T10:53:38;101584.41;;;32.15
34125;BMP280;20110;53.120;5.786;2023-07-13T10:58:39;101612.53;;;32.43
34125;BMP280;20110;53.120;5.786;2023-07-13T11:01:15;101615.22;;;33.15
34125;BMP280;20110;53.120;5.786;2023-07-13T11:04:01;101616.16;;;33.74
34125;BMP280;20110;53.120;5.786;2023-07-13T11:09:38;101578.41;;;33.80
34125;BMP280;20110;53.120;5.786;2023-07-13T11:17:46;101629.28;;;33.75
34125;BMP280;20110;53.120;5.786;2023-07-13T11:23:36;101605.00;;;33.63
34125;BMP280;20110;53.120;5.786;2023-07-13T11:25:38;101635.59;;;33.84
34125;BMP280;20110;53.120;5.786;2023-07-13T11:28:05;101643.78;;;33.78
34125;BMP280;20110;53.120;5.786;2023-07-13T11:33:31;101638.09;;;34.13
34125;BMP280;20110;53.120;5.786;2023-07-13T11:36:19;101645.38;;;34.45
34125;BMP280;20110;53.120;5.786;2023-07-13T11:39:21;101634.25;;;35.05
34125;BMP280;20110;53.120;5.786;2023-07-13T11:41:53;101619.06;;;35.04
34125;BMP280;20110;53.120;5.786;2023-07-13T11:44:23;101626.03;;;35.11
34125;BMP280;20110;53.120;5.786;2023-07-13T11:46:58;101641.47;;;35.42
34125;BMP280;20110;53.120;5.786;2023-07-13T11:49:31;101619.75;;;35.00
34125;BMP280;20110;53.120;5.786;2023-07-13T11:51:59;101638.56;;;35.26
34125;BMP280;20110;53.120;5.786;2023-07-13T11:54:42;101642.75;;;34.57
34125;BMP280;20110;53.120;5.786;2023-07-13T11:57:29;101633.59;;;34.42
34125;BMP280;20110;53.120;5.786;2023-07-13T11:59:58;101643.00;;;34.83
34125;BMP280;20110;53.120;5.786;2023-07-13T12:02:40;101642.59;;;35.13
34125;BMP280;20110;53.120;5.786;2023-07-13T12:05:15;101643.34;;;35.19
34125;BMP280;20110;53.120;5.786;2023-07-13T12:07:52;101622.38;;;34.88
34125;BMP280;20110;53.120;5.786;2023-07-13T12:10:27;101667.03;;;34.70
34125;BMP280;20110;53.120;5.786;2023-07-13T12:13:05;101659.69;;;33.83
34125;BMP280;20110;53.120;5.786;2023-07-13T12:15:44;101670.97;;;33.99
34125;BMP280;20110;53.120;5.786;2023-07-13T12:18:23;101632.09;;;34.31
34125;BMP280;20110;53.120;5.786;2023-07-13T12:20:58;101646.75;;;33.92
34125;BMP280;20110;53.120;5.786;2023-07-13T12:23:34;101638.22;;;34.26
34125;BMP280;20110;53.120;5.786;2023-07-13T12:26:06;101669.78;;;34.12
34125;BMP280;20110;53.120;5.786;2023-07-13T12:28:46;101661.69;;;34.29
34125;BMP280;20110;53.120;5.786;2023-07-13T12:31:35;101649.25;;;34.26
34125;BMP280;20110;53.120;5.786;2023-07-13T12:34:15;101671.13;;;34.11
34125;BMP280;20110;53.120;5.786;2023-07-13T12:37:02;101674.13;;;34.30
34125;BMP280;20110;53.120;5.786;2023-07-13T12:39:37;101629.69;;;34.05
34125;BMP280;20110;53.120;5.786;2023-07-13T12:42:32;101678.34;;;33.85
34125;BMP280;20110;53.120;5.786;2023-07-13T12:45:22;101686.19;;;34.04
34125;BMP280;20110;53.120;5.786;2023-07-13T12:47:55;101663.53;;;34.10
34125;BMP280;20110;53.120;5.786;2023-07-13T12:50:34;101684.63;;;34.41
34125;BMP280;20110;53.120;5.786;2023-07-13T12:53:04;101687.91;;;34.30
34125;BMP280;20110;53.120;5.786;2023-07-13T12:56:02;101671.41;;;34.32
34125;BMP280;20110;53.120;5.786;2023-07-13T12:58:36;101668.00;;;34.35
34125;BMP280;20110;53.120;5.786;2023-07-13T13:01:04;101677.84;;;34.50
34125;BMP280;20110;53.120;5.786;2023-07-13T13:03:38;101669.47;;;33.90
34125;BMP280;20110;53.120;5.786;2023-07-13T13:08:41;101660.25;;;32.94
34125;BMP280;20110;53.120;5.786;2023-07-13T13:11:08;101683.09;;;32.67
34125;BMP280;20110;53.120;5.786;2023-07-13T13:13:35;101676.09;;;32.28
34125;BMP280;20110;53.120;5.786;2023-07-13T13:19:21;101664.44;;;31.70
34125;BMP280;20110;53.120;5.786;2023-07-13T13:21:48;101640.88;;;31.35
34125;BMP280;20110;53.120;5.786;2023-07-13T13:24:21;101674.84;;;31.47
34125;BMP280;20110;53.120;5.786;2023-07-13T13:26:51;101682.41;;;31.75
34125;BMP280;20110;53.120;5.786;2023-07-13T13:29:24;101665.91;;;31.47
34125;BMP280;20110;53.120;5.786;2023-07-13T13:31:51;101623.97;;;30.67
34125;BMP280;20110;53.120;5.786;2023-07-13T13:34:19;101688.53;;;30.72
34125;BMP280;20110;53.120;5.786;2023-07-13T13:36:47;101695.97;;;30.46
34125;BMP280;20110;53.120;5.786;2023-07-13T13:39:36;101703.41;;;30.00
34125;BMP280;20110;53.120;5.786;2023-07-13T13:42:04;101683.38;;;29.54
34125;BMP280;20110;53.120;5.786;2023-07-13T13:44:30;101673.81;;;29.35
34125;BMP280;20110;53.120;5.786;2023-07-13T13:46:57;101657.84;;;29.28
34125;BMP280;20110;53.120;5.786;2023-07-13T13:49:26;101715.94;;;29.66
34125;BMP280;20110;53.120;5.786;2023-07-13T13:51:53;101656.00;;;29.54
34125;BMP280;20110;53.120;5.786;2023-07-13T13:54:22;101662.72;;;29.71
34125;BMP280;20110;53.120;5.786;2023-07-13T13:56:51;101652.94;;;29.85
34125;BMP280;20110;53.120;5.786;2023-07-13T13:59:18;101695.78;;;30.18
34125;BMP280;20110;53.120;5.786;2023-07-13T14:01:47;101690.16;;;29.92
34125;BMP280;20110;53.120;5.786;2023-07-13T14:04:20;101704.63;;;29.95
34125;BMP280;20110;53.120;5.786;2023-07-13T14:06:46;101676.41;;;29.90
34125;BMP280;20110;53.120;5.786;2023-07-13T14:09:15;101666.03;;;29.67
34125;BMP280;20110;53.120;5.786;2023-07-13T14:11:42;101700.50;;;29.94
34125;BMP280;20110;53.120;5.786;2023-07-13T14:14:16;101686.03;;;29.91
34125;BMP280;20110;53.120;5.786;2023-07-13T14:16:43;101713.50;;;30.15
34125;BMP280;20110;53.120;5.786;2023-07-13T14:19:14;101715.41;;;30.11
34125;BMP280;20110;53.120;5.786;2023-07-13T14:21:40;101704.59;;;30.15
34125;BMP280;20110;53.120;5.786;2023-07-13T14:24:06;101703.59;;;30.06
34125;BMP280;20110;53.120;5.786;2023-07-13T14:26:38;101710.72;;;30.13
34125;BMP280;20110;53.120;5.786;2023-07-13T14:29:12;101706.31;;;30.26
34125;BMP280;20110;53.120;5.786;2023-07-13T14:31:39;101682.47;;;30.09
34125;BMP280;20110;53.120;5.786;2023-07-13T14:34:04;101693.25;;;30.24
34125;BMP280;20110;53.120;5.786;2023-07-13T14:36:43;101705.88;;;30.33
34125;BMP280;20110;53.120;5.786;2023-07-13T14:39:23;101708.53;;;30.53
34125;BMP280;20110;53.120;5.786;2023-07-13T14:41:55;101667.56;;;30.35
34125;BMP280;20110;53.120;5.786;2023-07-13T14:44:26;101705.91;;;30.57
34125;BMP280;20110;53.120;5.786;2023-07-13T14:46:55;101717.38;;;30.51
34125;BMP280;20110;53.120;5.786;2023-07-13T14:51:59;101702.56;;;30.37
34125;BMP280;20110;53.120;5.786;2023-07-13T14:54:26;101705.78;;;30.10
34125;BMP280;20110;53.120;5.786;2023-07-13T14:56:52;101720.41;;;29.96